sensor_id;sensor_type;location;lat;lon;timestamp;pressure;altitude;pressure_sealevel;temperature
78859;BMP280;68210;52.032;4.634;2023-05-24T00:01:22;102393.91;;;15.21
78859;BMP280;68210;52.032;4.634;2023-05-24T00:03:25;102400.66;;;15.12
78859;BMP280;68210;52.032;4.634;2023-05-24T00:05:27;102395.63;;;15.14
78859;BMP280;68210;52.032;4.634;2023-05-24T00:07:30;102389.69;;;15.23
78859;BMP280;68210;52.032;4.634;2023-05-24T00:09:30;102385.81;;;15.24
78859;BMP280;68210;52.032;4.634;2023-05-24T00:11:32;102386.50;;;15.33
78859;BMP280;68210;52.032;4.634;2023-05-24T00:13:32;102387.88;;;15.27
78859;BMP280;68210;52.032;4.634;2023-05-24T00:15:33;102382.16;;;15.32
78859;BMP280;68210;52.032;4.634;2023-05-24T00:17:33;102388.22;;;15.26
78859;BMP280;68210;52.032;4.634;2023-05-24T00:19:39;102384.03;;;15.17
78859;BMP280;68210;52.032;4.634;2023-05-24T00:21:40;102376.94;;;15.16
78859;BMP280;68210;52.032;4.634;2023-05-24T00:23:41;102378.31;;;15.10
78859;BMP280;68210;52.032;4.634;2023-05-24T00:25:41;102369.53;;;15.04
78859;BMP280;68210;52.032;4.634;2023-05-24T00:27:41;102388.81;;;15.20
78859;BMP280;68210;52.032;4.634;2023-05-24T00:29:42;102381.97;;;15.25
78859;BMP280;68210;52.032;4.634;2023-05-24T00:31:42;102393.44;;;15.19
78859;BMP280;68210;52.032;4.634;2023-05-24T00:33:42;102379.22;;;15.14
78859;BMP280;68210;52.032;4.634;2023-05-24T00:35:43;102385.63;;;15.18
78859;BMP280;68210;52.032;4.634;2023-05-24T00:37:43;102386.50;;;15.21
78859;BMP280;68210;52.032;4.634;2023-05-24T00:39:44;102380.25;;;15.33
78859;BMP280;68210;52.032;4.634;2023-05-24T00:41:44;102382.53;;;15.19
78859;BMP280;68210;52.032;4.634;2023-05-24T00:43:45;102380.50;;;15.28
78859;BMP280;68210;52.032;4.634;2023-05-24T00:45:45;102375.56;;;15.21
78859;BMP280;68210;52.032;4.634;2023-05-24T00:47:45;102380.56;;;15.08
78859;BMP280;68210;52.032;4.634;2023-05-24T00:49:46;102380.78;;;15.03
78859;BMP280;68210;52.032;4.634;2023-05-24T00:51:47;102382.84;;;15.06
78859;BMP280;68210;52.032;4.634;2023-05-24T00:53:48;102386.88;;;15.20
78859;BMP280;68210;52.032;4.634;2023-05-24T00:55:48;102379.34;;;15.17
78859;BMP280;68210;52.032;4.634;2023-05-24T00:57:50;102382.19;;;15.20
78859;BMP280;68210;52.032;4.634;2023-05-24T00:59:51;102387.19;;;15.19
78859;BMP280;68210;52.032;4.634;2023-05-24T01:01:51;102376.03;;;15.23
78859;BMP280;68210;52.032;4.634;2023-05-24T01:03:54;102375.59;;;15.10
78859;BMP280;68210;52.032;4.634;2023-05-24T01:06:01;102370.59;;;15.12
78859;BMP280;68210;52.032;4.634;2023-05-24T01:10:52;102367.84;;;15.12
78859;BMP280;68210;52.032;4.634;2023-05-24T01:13:04;102374.00;;;15.09
78859;BMP280;68210;52.032;4.634;2023-05-24T01:15:23;102371.28;;;15.09
78859;BMP280;68210;52.032;4.634;2023-05-24T01:17:38;102372.97;;;15.25
78859;BMP280;68210;52.032;4.634;2023-05-24T01:22:04;102379.53;;;15.00
78859;BMP280;68210;52.032;4.634;2023-05-24T01:26:19;102373.50;;;14.95
78859;BMP280;68210;52.032;4.634;2023-05-24T01:28:21;102378.97;;;14.83
78859;BMP280;68210;52.032;4.634;2023-05-24T01:30:22;102379.22;;;14.90
78859;BMP280;68210;52.032;4.634;2023-05-24T01:32:22;102380.69;;;14.88
78859;BMP280;68210;52.032;4.634;2023-05-24T01:34:26;102380.31;;;14.89
78859;BMP280;68210;52.032;4.634;2023-05-24T01:36:27;102373.97;;;14.97
78859;BMP280;68210;52.032;4.634;2023-05-24T01:38:27;102377.63;;;15.01
78859;BMP280;68210;52.032;4.634;2023-05-24T01:40:27;102375.78;;;15.05
78859;BMP280;68210;52.032;4.634;2023-05-24T01:44:43;102383.09;;;15.13
78859;BMP280;68210;52.032;4.634;2023-05-24T01:46:49;102377.88;;;15.20
78859;BMP280;68210;52.032;4.634;2023-05-24T01:49:05;102380.34;;;15.01
78859;BMP280;68210;52.032;4.634;2023-05-24T01:51:08;102371.81;;;14.90
78859;BMP280;68210;52.032;4.634;2023-05-24T01:53:17;102374.41;;;14.63
78859;BMP280;68210;52.032;4.634;2023-05-24T01:55:17;102390.28;;;14.50
78859;BMP280;68210;52.032;4.634;2023-05-24T01:57:19;102383.00;;;14.42
78859;BMP280;68210;52.032;4.634;2023-05-24T01:59:22;102372.78;;;14.62
78859;BMP280;68210;52.032;4.634;2023-05-24T02:01:23;102373.25;;;14.76
78859;BMP280;68210;52.032;4.634;2023-05-24T02:03:23;102373.50;;;14.71
78859;BMP280;68210;52.032;4.634;2023-05-24T02:05:24;102366.22;;;14.75
78859;BMP280;68210;52.032;4.634;2023-05-24T02:07:24;102362.22;;;14.73
78859;BMP280;68210;52.032;4.634;2023-05-24T02:09:25;102351.53;;;14.68
78859;BMP280;68210;52.032;4.634;2023-05-24T02:11:26;102358.47;;;14.89
78859;BMP280;68210;52.032;4.634;2023-05-24T02:13:26;102361.22;;;14.89
78859;BMP280;68210;52.032;4.634;2023-05-24T02:15:27;102361.69;;;14.79
78859;BMP280;68210;52.032;4.634;2023-05-24T02:17:29;102353.56;;;14.71
78859;BMP280;68210;52.032;4.634;2023-05-24T02:19:32;102347.22;;;14.67
78859;BMP280;68210;52.032;4.634;2023-05-24T02:21:33;102340.72;;;14.59
78859;BMP280;68210;52.032;4.634;2023-05-24T02:23:34;102349.69;;;14.60
78859;BMP280;68210;52.032;4.634;2023-05-24T02:25:36;102354.81;;;14.50
78859;BMP280;68210;52.032;4.634;2023-05-24T02:27:36;102348.53;;;14.49
78859;BMP280;68210;52.032;4.634;2023-05-24T02:29:37;102355.03;;;14.45
78859;BMP280;68210;52.032;4.634;2023-05-24T02:31:37;102365.22;;;14.36
78859;BMP280;68210;52.032;4.634;2023-05-24T02:33:37;102358.56;;;14.57
78859;BMP280;68210;52.032;4.634;2023-05-24T02:35:38;102353.34;;;14.64
78859;BMP280;68210;52.032;4.634;2023-05-24T02:37:40;102354.38;;;14.71
78859;BMP280;68210;52.032;4.634;2023-05-24T02:39:40;102355.28;;;14.75
78859;BMP280;68210;52.032;4.634;2023-05-24T02:41:41;102353.13;;;14.81
78859;BMP280;68210;52.032;4.634;2023-05-24T02:43:41;102358.59;;;14.69
78859;BMP280;68210;52.032;4.634;2023-05-24T02:45:42;102355.84;;;14.57
78859;BMP280;68210;52.032;4.634;2023-05-24T02:47:42;102369.47;;;14.45
78859;BMP280;68210;52.032;4.634;2023-05-24T02:49:42;102366.47;;;14.38
78859;BMP280;68210;52.032;4.634;2023-05-24T02:51:43;102362.06;;;14.46
78859;BMP280;68210;52.032;4.634;2023-05-24T02:53:43;102358.69;;;14.60
78859;BMP280;68210;52.032;4.634;2023-05-24T02:55:44;102363.69;;;14.70
78859;BMP280;68210;52.032;4.634;2023-05-24T02:57:45;102371.63;;;14.52
78859;BMP280;68210;52.032;4.634;2023-05-24T02:59:47;102376.41;;;14.55
78859;BMP280;68210;52.032;4.634;2023-05-24T03:01:47;102365.28;;;14.59
78859;BMP280;68210;52.032;4.634;2023-05-24T03:03:48;102364.84;;;14.69
78859;BMP280;68210;52.032;4.634;2023-05-24T03:05:48;102361.88;;;14.62
78859;BMP280;68210;52.032;4.634;2023-05-24T03:07:48;102358.56;;;14.57
78859;BMP280;68210;52.032;4.634;2023-05-24T03:09:49;102361.44;;;14.60
78859;BMP280;68210;52.032;4.634;2023-05-24T03:11:49;102361.53;;;14.76
78859;BMP280;68210;52.032;4.634;2023-05-24T03:13:51;102363.00;;;14.73
78859;BMP280;68210;52.032;4.634;2023-05-24T03:15:52;102356.56;;;14.66
78859;BMP280;68210;52.032;4.634;2023-05-24T03:17:52;102355.13;;;14.48
78859;BMP280;68210;52.032;4.634;2023-05-24T03:19:52;102356.03;;;14.52
78859;BMP280;68210;52.032;4.634;2023-05-24T03:21:53;102346.31;;;14.63
78859;BMP280;68210;52.032;4.634;2023-05-24T03:23:53;102349.81;;;14.75
78859;BMP280;68210;52.032;4.634;2023-05-24T03:25:54;102339.13;;;14.58
78859;BMP280;68210;52.032;4.634;2023-05-24T03:27:54;102347.78;;;14.60
78859;BMP280;68210;52.032;4.634;2023-05-24T03:29:55;102346.31;;;14.63
78859;BMP280;68210;52.032;4.634;2023-05-24T03:31:55;102338.44;;;14.61
78859;BMP280;68210;52.032;4.634;2023-05-24T03:33:55;102341.38;;;14.57
78859;BMP280;68210;52.032;4.634;2023-05-24T03:35:56;102338.44;;;14.73
78859;BMP280;68210;52.032;4.634;2023-05-24T03:37:56;102326.75;;;14.85
78859;BMP280;68210;52.032;4.634;2023-05-24T03:39:57;102337.53;;;14.81
78859;BMP280;68210;52.032;4.634;2023-05-24T03:41:57;102338.25;;;14.90
78859;BMP280;68210;52.032;4.634;2023-05-24T03:43:58;102341.19;;;14.97
78859;BMP280;68210;52.032;4.634;2023-05-24T03:45:58;102345.97;;;14.88
78859;BMP280;68210;52.032;4.634;2023-05-24T03:47:58;102344.16;;;14.68
78859;BMP280;68210;52.032;4.634;2023-05-24T03:49:59;102338.44;;;14.73
78859;BMP280;68210;52.032;4.634;2023-05-24T03:51:59;102336.97;;;14.76
78859;BMP280;68210;52.032;4.634;2023-05-24T03:53:59;102337.31;;;14.86
78859;BMP280;68210;52.032;4.634;2023-05-24T03:56:00;102340.28;;;14.93
78859;BMP280;68210;52.032;4.634;2023-05-24T03:58:00;102340.28;;;14.93
78859;BMP280;68210;52.032;4.634;2023-05-24T04:00:01;102337.56;;;14.93
78859;BMP280;68210;52.032;4.634;2023-05-24T04:02:01;102336.50;;;14.97
78859;BMP280;68210;52.032;4.634;2023-05-24T04:04:02;102348.47;;;14.93
78859;BMP280;68210;52.032;4.634;2023-05-24T04:06:03;102350.63;;;14.76
78859;BMP280;68210;52.032;4.634;2023-05-24T04:08:03;102357.13;;;14.83
78859;BMP280;68210;52.032;4.634;2023-05-24T04:10:05;102362.00;;;14.89
78859;BMP280;68210;52.032;4.634;2023-05-24T04:12:06;102355.31;;;14.87
78859;BMP280;68210;52.032;4.634;2023-05-24T04:14:06;102367.81;;;14.88
78859;BMP280;68210;52.032;4.634;2023-05-24T04:16:06;102361.69;;;14.91
78859;BMP280;68210;52.032;4.634;2023-05-24T04:18:08;102357.56;;;14.97
78859;BMP280;68210;52.032;4.634;2023-05-24T04:20:10;102361.16;;;15.09
78859;BMP280;68210;52.032;4.634;2023-05-24T04:22:10;102369.22;;;15.18
78859;BMP280;68210;52.032;4.634;2023-05-24T04:24:11;102367.72;;;15.32
78859;BMP280;68210;52.032;4.634;2023-05-24T04:26:12;102373.97;;;15.44
78859;BMP280;68210;52.032;4.634;2023-05-24T04:28:13;102369.53;;;15.51
78859;BMP280;68210;52.032;4.634;2023-05-24T04:30:14;102365.25;;;15.66
78859;BMP280;68210;52.032;4.634;2023-05-24T04:32:15;102362.94;;;15.80
78859;BMP280;68210;52.032;4.634;2023-05-24T04:34:16;102359.72;;;15.89
78859;BMP280;68210;52.032;4.634;2023-05-24T04:36:17;102359.13;;;15.96
78859;BMP280;68210;52.032;4.634;2023-05-24T04:38:18;102360.91;;;16.04
78859;BMP280;68210;52.032;4.634;2023-05-24T04:40:18;102358.72;;;16.09
78859;BMP280;68210;52.032;4.634;2023-05-24T04:42:22;102356.75;;;16.21
78859;BMP280;68210;52.032;4.634;2023-05-24T04:44:23;102362.50;;;16.32
78859;BMP280;68210;52.032;4.634;2023-05-24T04:46:23;102364.03;;;16.44
78859;BMP280;68210;52.032;4.634;2023-05-24T04:48:23;102361.66;;;16.58
78859;BMP280;68210;52.032;4.634;2023-05-24T04:50:24;102359.56;;;16.67
78859;BMP280;68210;52.032;4.634;2023-05-24T04:52:24;102356.56;;;16.72
78859;BMP280;68210;52.032;4.634;2023-05-24T04:54:25;102348.75;;;16.74
78859;BMP280;68210;52.032;4.634;2023-05-24T04:56:25;102351.84;;;16.88
78859;BMP280;68210;52.032;4.634;2023-05-24T04:58:26;102348.94;;;16.96
78859;BMP280;68210;52.032;4.634;2023-05-24T05:00:26;102350.41;;;17.09
78859;BMP280;68210;52.032;4.634;2023-05-24T05:02:26;102351.59;;;17.23
78859;BMP280;68210;52.032;4.634;2023-05-24T05:04:27;102353.75;;;17.33
78859;BMP280;68210;52.032;4.634;2023-05-24T05:06:27;102344.13;;;17.39
78859;BMP280;68210;52.032;4.634;2023-05-24T05:08:27;102343.81;;;17.44
78859;BMP280;68210;52.032;4.634;2023-05-24T05:10:28;102345.16;;;17.50
78859;BMP280;68210;52.032;4.634;2023-05-24T05:12:28;102342.59;;;17.60
78859;BMP280;68210;52.032;4.634;2023-05-24T05:14:29;102337.78;;;17.72
78859;BMP280;68210;52.032;4.634;2023-05-24T05:16:29;102336.63;;;17.73
78859;BMP280;68210;52.032;4.634;2023-05-24T05:18:30;102348.63;;;17.84
78859;BMP280;68210;52.032;4.634;2023-05-24T05:20:32;102347.25;;;17.94
78859;BMP280;68210;52.032;4.634;2023-05-24T05:22:33;102347.97;;;17.53
78859;BMP280;68210;52.032;4.634;2023-05-24T05:24:33;102346.72;;;17.51
78859;BMP280;68210;52.032;4.634;2023-05-24T05:26:34;102349.69;;;17.27
78859;BMP280;68210;52.032;4.634;2023-05-24T05:28:34;102348.88;;;17.42
78859;BMP280;68210;52.032;4.634;2023-05-24T05:30:35;102357.00;;;17.72
78859;BMP280;68210;52.032;4.634;2023-05-24T05:32:35;102357.41;;;17.56
78859;BMP280;68210;52.032;4.634;2023-05-24T05:34:36;102363.41;;;17.27
78859;BMP280;68210;52.032;4.634;2023-05-24T05:36:37;102354.97;;;17.35
78859;BMP280;68210;52.032;4.634;2023-05-24T05:38:41;102364.91;;;17.40
78859;BMP280;68210;52.032;4.634;2023-05-24T05:40:42;102360.16;;;17.56
78859;BMP280;68210;52.032;4.634;2023-05-24T05:42:42;102356.25;;;17.07
78859;BMP280;68210;52.032;4.634;2023-05-24T05:44:42;102356.09;;;17.01
78859;BMP280;68210;52.032;4.634;2023-05-24T05:46:43;102357.84;;;17.24
78859;BMP280;68210;52.032;4.634;2023-05-24T05:48:45;102354.66;;;17.22
78859;BMP280;68210;52.032;4.634;2023-05-24T05:50:46;102353.91;;;16.91
78859;BMP280;68210;52.032;4.634;2023-05-24T05:52:46;102360.84;;;17.03
78859;BMP280;68210;52.032;4.634;2023-05-24T05:54:47;102368.91;;;16.66
78859;BMP280;68210;52.032;4.634;2023-05-24T05:56:47;102368.13;;;16.96
78859;BMP280;68210;52.032;4.634;2023-05-24T05:58:48;102369.06;;;17.03
78859;BMP280;68210;52.032;4.634;2023-05-24T06:00:48;102368.75;;;17.20
78859;BMP280;68210;52.032;4.634;2023-05-24T06:02:48;102368.34;;;17.06
78859;BMP280;68210;52.032;4.634;2023-05-24T06:04:49;102368.31;;;17.18
78859;BMP280;68210;52.032;4.634;2023-05-24T06:06:49;102372.44;;;16.82
78859;BMP280;68210;52.032;4.634;2023-05-24T06:08:51;102369.25;;;16.95
78859;BMP280;68210;52.032;4.634;2023-05-24T06:10:51;102372.25;;;17.05
78859;BMP280;68210;52.032;4.634;2023-05-24T06:12:52;102381.44;;;17.28
78859;BMP280;68210;52.032;4.634;2023-05-24T06:14:52;102385.34;;;17.27
78859;BMP280;68210;52.032;4.634;2023-05-24T06:16:53;102386.94;;;17.28
78859;BMP280;68210;52.032;4.634;2023-05-24T06:18:54;102387.81;;;16.71
78859;BMP280;68210;52.032;4.634;2023-05-24T06:20:54;102385.34;;;16.97
78859;BMP280;68210;52.032;4.634;2023-05-24T06:22:55;102386.31;;;17.19
78859;BMP280;68210;52.032;4.634;2023-05-24T06:24:56;102381.81;;;17.11
78859;BMP280;68210;52.032;4.634;2023-05-24T06:26:56;102389.06;;;16.73
78859;BMP280;68210;52.032;4.634;2023-05-24T06:28:57;102380.97;;;17.41
78859;BMP280;68210;52.032;4.634;2023-05-24T06:30:57;102383.97;;;17.52
78859;BMP280;68210;52.032;4.634;2023-05-24T06:32:57;102381.94;;;17.49
78859;BMP280;68210;52.032;4.634;2023-05-24T06:34:58;102389.56;;;17.09
78859;BMP280;68210;52.032;4.634;2023-05-24T06:36:58;102388.34;;;17.22
78859;BMP280;68210;52.032;4.634;2023-05-24T06:38:58;102389.16;;;17.07
78859;BMP280;68210;52.032;4.634;2023-05-24T06:40:59;102391.72;;;17.31
78859;BMP280;68210;52.032;4.634;2023-05-24T06:42:59;102383.44;;;17.46
78859;BMP280;68210;52.032;4.634;2023-05-24T06:45:00;102384.72;;;17.67
78859;BMP280;68210;52.032;4.634;2023-05-24T06:47:00;102388.00;;;17.39
78859;BMP280;68210;52.032;4.634;2023-05-24T06:49:01;102379.94;;;17.31
78859;BMP280;68210;52.032;4.634;2023-05-24T06:51:02;102389.78;;;17.32
78859;BMP280;68210;52.032;4.634;2023-05-24T06:53:03;102378.81;;;16.86
78859;BMP280;68210;52.032;4.634;2023-05-24T06:55:03;102373.34;;;16.86
78859;BMP280;68210;52.032;4.634;2023-05-24T06:57:04;102391.72;;;16.70
78859;BMP280;68210;52.032;4.634;2023-05-24T06:59:04;102379.00;;;17.23
78859;BMP280;68210;52.032;4.634;2023-05-24T07:01:05;102375.81;;;16.91
78859;BMP280;68210;52.032;4.634;2023-05-24T07:03:07;102377.56;;;16.99
78859;BMP280;68210;52.032;4.634;2023-05-24T07:05:07;102382.59;;;16.66
78859;BMP280;68210;52.032;4.634;2023-05-24T07:07:11;102381.13;;;16.84
78859;BMP280;68210;52.032;4.634;2023-05-24T07:09:12;102380.41;;;17.17
78859;BMP280;68210;52.032;4.634;2023-05-24T07:11:13;102384.91;;;17.25
78859;BMP280;68210;52.032;4.634;2023-05-24T07:13:14;102378.09;;;17.19
78859;BMP280;68210;52.032;4.634;2023-05-24T07:15:14;102375.81;;;16.91
78859;BMP280;68210;52.032;4.634;2023-05-24T07:17:15;102389.75;;;16.55
78859;BMP280;68210;52.032;4.634;2023-05-24T07:19:15;102382.44;;;16.59
78859;BMP280;68210;52.032;4.634;2023-05-24T07:21:16;102385.94;;;16.44
78859;BMP280;68210;52.032;4.634;2023-05-24T07:23:16;102384.03;;;16.75
78859;BMP280;68210;52.032;4.634;2023-05-24T07:25:16;102390.03;;;16.66
78859;BMP280;68210;52.032;4.634;2023-05-24T07:27:18;102393.56;;;16.66
78859;BMP280;68210;52.032;4.634;2023-05-24T07:29:18;102386.78;;;16.91
78859;BMP280;68210;52.032;4.634;2023-05-24T07:31:20;102381.31;;;16.91
78859;BMP280;68210;52.032;4.634;2023-05-24T07:33:21;102397.19;;;16.85
78859;BMP280;68210;52.032;4.634;2023-05-24T07:35:22;102392.06;;;17.14
78859;BMP280;68210;52.032;4.634;2023-05-24T07:37:23;102395.53;;;17.11
78859;BMP280;68210;52.032;4.634;2023-05-24T07:39:24;102393.66;;;17.00
78859;BMP280;68210;52.032;4.634;2023-05-24T07:41:26;102393.13;;;17.25
78859;BMP280;68210;52.032;4.634;2023-05-24T07:43:26;102393.41;;;17.20
78859;BMP280;68210;52.032;4.634;2023-05-24T07:45:27;102391.41;;;17.51
78859;BMP280;68210;52.032;4.634;2023-05-24T07:47:27;102389.72;;;17.47
78859;BMP280;68210;52.032;4.634;2023-05-24T07:49:28;102393.03;;;17.90
78859;BMP280;68210;52.032;4.634;2023-05-24T07:51:28;102390.25;;;18.05
78859;BMP280;68210;52.032;4.634;2023-05-24T07:53:28;102391.41;;;18.23
78859;BMP280;68210;52.032;4.634;2023-05-24T07:55:29;102387.19;;;18.47
78859;BMP280;68210;52.032;4.634;2023-05-24T07:57:29;102383.94;;;18.42
78859;BMP280;68210;52.032;4.634;2023-05-24T07:59:29;102388.94;;;18.18
78859;BMP280;68210;52.032;4.634;2023-05-24T08:01:30;102382.44;;;18.26
78859;BMP280;68210;52.032;4.634;2023-05-24T08:03:31;102393.09;;;17.74
78859;BMP280;68210;52.032;4.634;2023-05-24T08:05:31;102394.28;;;18.11
78859;BMP280;68210;52.032;4.634;2023-05-24T08:07:32;102393.13;;;17.93
78859;BMP280;68210;52.032;4.634;2023-05-24T08:09:32;102387.38;;;18.17
78859;BMP280;68210;52.032;4.634;2023-05-24T08:11:34;102386.66;;;18.20
78859;BMP280;68210;52.032;4.634;2023-05-24T08:13:35;102388.38;;;18.27
78859;BMP280;68210;52.032;4.634;2023-05-24T08:15:35;102383.47;;;18.18
78859;BMP280;68210;52.032;4.634;2023-05-24T08:17:37;102392.69;;;17.91
78859;BMP280;68210;52.032;4.634;2023-05-24T08:19:38;102379.03;;;18.13
78859;BMP280;68210;52.032;4.634;2023-05-24T08:21:38;102388.16;;;18.58
78859;BMP280;68210;52.032;4.634;2023-05-24T08:23:40;102378.25;;;19.20
78859;BMP280;68210;52.032;4.634;2023-05-24T08:25:41;102377.09;;;18.95
78859;BMP280;68210;52.032;4.634;2023-05-24T08:27:41;102368.47;;;19.22
78859;BMP280;68210;52.032;4.634;2023-05-24T08:29:42;102376.16;;;19.36
78859;BMP280;68210;52.032;4.634;2023-05-24T08:31:42;102369.16;;;19.42
78859;BMP280;68210;52.032;4.634;2023-05-24T08:33:43;102370.97;;;19.56
78859;BMP280;68210;52.032;4.634;2023-05-24T08:35:43;102367.06;;;19.86
78859;BMP280;68210;52.032;4.634;2023-05-24T08:37:44;102359.38;;;20.35
78859;BMP280;68210;52.032;4.634;2023-05-24T08:39:45;102353.63;;;20.50
78859;BMP280;68210;52.032;4.634;2023-05-24T08:41:45;102363.06;;;20.49
78859;BMP280;68210;52.032;4.634;2023-05-24T08:43:46;102365.41;;;20.86
78859;BMP280;68210;52.032;4.634;2023-05-24T08:45:47;102361.22;;;20.60
78859;BMP280;68210;52.032;4.634;2023-05-24T08:47:49;102355.31;;;21.04
78859;BMP280;68210;52.032;4.634;2023-05-24T08:49:52;102369.56;;;21.13
78859;BMP280;68210;52.032;4.634;2023-05-24T08:51:54;102364.22;;;21.33
78859;BMP280;68210;52.032;4.634;2023-05-24T08:53:58;102357.84;;;21.30
78859;BMP280;68210;52.032;4.634;2023-05-24T08:56:00;102357.66;;;21.02
78859;BMP280;68210;52.032;4.634;2023-05-24T08:58:02;102367.91;;;20.59
78859;BMP280;68210;52.032;4.634;2023-05-24T09:00:05;102361.84;;;20.82
78859;BMP280;68210;52.032;4.634;2023-05-24T09:02:08;102365.31;;;21.22
78859;BMP280;68210;52.032;4.634;2023-05-24T09:04:10;102369.38;;;20.89
78859;BMP280;68210;52.032;4.634;2023-05-24T09:06:11;102371.00;;;20.93
78859;BMP280;68210;52.032;4.634;2023-05-24T09:08:12;102360.97;;;21.25
78859;BMP280;68210;52.032;4.634;2023-05-24T09:10:19;102368.63;;;21.41
78859;BMP280;68210;52.032;4.634;2023-05-24T09:12:23;102362.88;;;20.68
78859;BMP280;68210;52.032;4.634;2023-05-24T09:14:24;102373.22;;;20.77
78859;BMP280;68210;52.032;4.634;2023-05-24T09:16:24;102371.34;;;20.92
78859;BMP280;68210;52.032;4.634;2023-05-24T09:18:25;102372.38;;;21.20
78859;BMP280;68210;52.032;4.634;2023-05-24T09:20:25;102374.53;;;21.43
78859;BMP280;68210;52.032;4.634;2023-05-24T09:22:27;102366.84;;;21.80
78859;BMP280;68210;52.032;4.634;2023-05-24T09:24:29;102366.81;;;21.73
78859;BMP280;68210;52.032;4.634;2023-05-24T09:26:30;102365.16;;;21.58
78859;BMP280;68210;52.032;4.634;2023-05-24T09:28:31;102371.59;;;21.76
78859;BMP280;68210;52.032;4.634;2023-05-24T09:30:31;102361.91;;;21.39
78859;BMP280;68210;52.032;4.634;2023-05-24T09:32:32;102362.91;;;21.81
78859;BMP280;68210;52.032;4.634;2023-05-24T09:34:42;102361.53;;;22.25
78859;BMP280;68210;52.032;4.634;2023-05-24T09:36:45;102350.53;;;22.66
78859;BMP280;68210;52.032;4.634;2023-05-24T09:38:45;102364.72;;;22.30
78859;BMP280;68210;52.032;4.634;2023-05-24T09:40:45;102354.44;;;22.27
78859;BMP280;68210;52.032;4.634;2023-05-24T09:42:46;102347.28;;;22.09
78859;BMP280;68210;52.032;4.634;2023-05-24T09:47:01;102339.88;;;22.75
78859;BMP280;68210;52.032;4.634;2023-05-24T09:49:04;102342.22;;;22.35
78859;BMP280;68210;52.032;4.634;2023-05-24T09:51:07;102341.69;;;21.98
78859;BMP280;68210;52.032;4.634;2023-05-24T09:53:12;102339.44;;;22.28
78859;BMP280;68210;52.032;4.634;2023-05-24T09:55:19;102339.03;;;21.38
78859;BMP280;68210;52.032;4.634;2023-05-24T09:57:20;102336.72;;;20.94
78859;BMP280;68210;52.032;4.634;2023-05-24T09:59:24;102345.00;;;20.98
78859;BMP280;68210;52.032;4.634;2023-05-24T10:01:25;102341.78;;;20.85
78859;BMP280;68210;52.032;4.634;2023-05-24T10:03:27;102341.44;;;21.47
78859;BMP280;68210;52.032;4.634;2023-05-24T10:05:28;102345.66;;;21.31
78859;BMP280;68210;52.032;4.634;2023-05-24T10:07:28;102338.81;;;21.11
78859;BMP280;68210;52.032;4.634;2023-05-24T10:09:31;102338.13;;;20.74
78859;BMP280;68210;52.032;4.634;2023-05-24T10:11:35;102346.41;;;20.74
78859;BMP280;68210;52.032;4.634;2023-05-24T10:13:36;102343.38;;;21.43
78859;BMP280;68210;52.032;4.634;2023-05-24T10:15:37;102331.25;;;21.61
78859;BMP280;68210;52.032;4.634;2023-05-24T10:17:37;102340.28;;;21.51
78859;BMP280;68210;52.032;4.634;2023-05-24T10:19:37;102327.91;;;21.28
78859;BMP280;68210;52.032;4.634;2023-05-24T10:21:40;102325.47;;;21.20
78859;BMP280;68210;52.032;4.634;2023-05-24T10:23:43;102335.41;;;20.81
78859;BMP280;68210;52.032;4.634;2023-05-24T10:25:50;102337.47;;;20.88
78859;BMP280;68210;52.032;4.634;2023-05-24T10:28:04;102317.34;;;20.87
78859;BMP280;68210;52.032;4.634;2023-05-24T10:30:41;102340.06;;;21.17
78859;BMP280;68210;52.032;4.634;2023-05-24T10:32:44;102335.94;;;20.97
78859;BMP280;68210;52.032;4.634;2023-05-24T10:34:46;102336.81;;;21.11
78859;BMP280;68210;52.032;4.634;2023-05-24T10:36:47;102343.53;;;21.14
78859;BMP280;68210;52.032;4.634;2023-05-24T10:38:48;102338.53;;;21.26
78859;BMP280;68210;52.032;4.634;2023-05-24T10:40:49;102335.31;;;21.17
78859;BMP280;68210;52.032;4.634;2023-05-24T10:42:50;102345.25;;;20.79
78859;BMP280;68210;52.032;4.634;2023-05-24T10:44:51;102339.63;;;21.15
78859;BMP280;68210;52.032;4.634;2023-05-24T10:47:01;102326.59;;;20.62
78859;BMP280;68210;52.032;4.634;2023-05-24T10:49:03;102333.91;;;20.48
78859;BMP280;68210;52.032;4.634;2023-05-24T10:53:37;102326.44;;;20.91
78859;BMP280;68210;52.032;4.634;2023-05-24T10:55:58;102324.28;;;20.68
78859;BMP280;68210;52.032;4.634;2023-05-24T10:57:59;102326.38;;;20.81
78859;BMP280;68210;52.032;4.634;2023-05-24T11:00:25;102336.94;;;20.72
78859;BMP280;68210;52.032;4.634;2023-05-24T11:02:33;102332.63;;;20.74
78859;BMP280;68210;52.032;4.634;2023-05-24T11:04:39;102324.47;;;20.88
78859;BMP280;68210;52.032;4.634;2023-05-24T11:06:45;102331.00;;;21.23
78859;BMP280;68210;52.032;4.634;2023-05-24T11:08:47;102332.56;;;20.71
78859;BMP280;68210;52.032;4.634;2023-05-24T11:10:47;102318.09;;;20.81
78859;BMP280;68210;52.032;4.634;2023-05-24T11:12:56;102336.72;;;20.55
78859;BMP280;68210;52.032;4.634;2023-05-24T11:14:56;102324.41;;;20.06
78859;BMP280;68210;52.032;4.634;2023-05-24T11:16:57;102337.81;;;19.75
78859;BMP280;68210;52.032;4.634;2023-05-24T11:19:13;102334.38;;;19.85
78859;BMP280;68210;52.032;4.634;2023-05-24T11:21:15;102340.41;;;19.65
78859;BMP280;68210;52.032;4.634;2023-05-24T11:23:16;102340.63;;;19.79
78859;BMP280;68210;52.032;4.634;2023-05-24T11:25:17;102340.41;;;19.65
78859;BMP280;68210;52.032;4.634;2023-05-24T11:27:19;102348.13;;;19.56
78859;BMP280;68210;52.032;4.634;2023-05-24T11:29:19;102349.44;;;19.36
78859;BMP280;68210;52.032;4.634;2023-05-24T11:31:26;102337.31;;;19.15
78859;BMP280;68210;52.032;4.634;2023-05-24T11:33:26;102334.00;;;19.03
78859;BMP280;68210;52.032;4.634;2023-05-24T11:35:27;102328.63;;;18.65
78859;BMP280;68210;52.032;4.634;2023-05-24T11:37:28;102349.41;;;18.63
78859;BMP280;68210;52.032;4.634;2023-05-24T11:39:34;102346.94;;;18.58
78859;BMP280;68210;52.032;4.634;2023-05-24T11:41:37;102343.75;;;18.34
78859;BMP280;68210;52.032;4.634;2023-05-24T11:43:37;102342.44;;;18.47
78859;BMP280;68210;52.032;4.634;2023-05-24T11:45:38;102345.13;;;18.65